sensor_id;sensor_type;location;lat;lon;timestamp;pressure;altitude;pressure_sealevel;temperature;humidity
81905;BME280;71370;-33.792;151.032;2024-02-14T00:00:04;100578.42;;;28.00;53.44
81905;BME280;71370;-33.792;151.032;2024-02-14T00:01:11;100579.33;;;28.02;53.60
81905;BME280;71370;-33.792;151.032;2024-02-14T00:02:18;100578.16;;;28.03;53.22
81905;BME280;71370;-33.792;151.032;2024-02-14T00:03:25;100578.36;;;28.05;53.18
81905;BME280;71370;-33.792;151.032;2024-02-14T00:04:33;100566.55;;;28.05;52.88
81905;BME280;71370;-33.792;151.032;2024-02-14T00:05:40;100561.93;;;28.06;52.51
81905;BME280;71370;-33.792;151.032;2024-02-14T00:06:47;100560.82;;;28.08;52.60
81905;BME280;71370;-33.792;151.032;2024-02-14T00:07:54;100562.02;;;28.11;52.79
81905;BME280;71370;-33.792;151.032;2024-02-14T00:09:01;100567.06;;;28.13;52.82
81905;BME280;71370;-33.792;151.032;2024-02-14T00:10:08;100565.61;;;28.15;52.31
81905;BME280;71370;-33.792;151.032;2024-02-14T00:11:15;100564.27;;;28.19;52.87
81905;BME280;71370;-33.792;151.032;2024-02-14T00:12:23;100568.46;;;28.22;52.26
81905;BME280;71370;-33.792;151.032;2024-02-14T00:13:30;100566.70;;;28.24;51.02
81905;BME280;71370;-33.792;151.032;2024-02-14T00:14:40;100569.55;;;28.24;50.57
81905;BME280;71370;-33.792;151.032;2024-02-14T00:15:47;100568.23;;;28.25;51.04
81905;BME280;71370;-33.792;151.032;2024-02-14T00:16:54;100567.58;;;28.28;51.07
81905;BME280;71370;-33.792;151.032;2024-02-14T00:18:02;100568.19;;;28.33;51.16
81905;BME280;71370;-33.792;151.032;2024-02-14T00:19:09;100565.84;;;28.39;51.11
81905;BME280;71370;-33.792;151.032;2024-02-14T00:20:16;100567.50;;;28.46;51.61
81905;BME280;71370;-33.792;151.032;2024-02-14T00:21:23;100566.50;;;28.54;51.72
81905;BME280;71370;-33.792;151.032;2024-02-14T00:22:33;100569.05;;;28.63;51.72
81905;BME280;71370;-33.792;151.032;2024-02-14T00:23:39;100569.14;;;28.72;51.34
81905;BME280;71370;-33.792;151.032;2024-02-14T00:24:46;100564.87;;;28.81;50.83
81905;BME280;71370;-33.792;151.032;2024-02-14T00:25:53;100567.23;;;28.91;50.11
81905;BME280;71370;-33.792;151.032;2024-02-14T00:27:00;100569.98;;;29.00;50.65
81905;BME280;71370;-33.792;151.032;2024-02-14T00:28:09;100566.49;;;29.10;49.99
81905;BME280;71370;-33.792;151.032;2024-02-14T00:29:16;100564.88;;;29.18;48.39
81905;BME280;71370;-33.792;151.032;2024-02-14T00:30:23;100568.39;;;29.25;48.83
81905;BME280;71370;-33.792;151.032;2024-02-14T00:31:30;100566.57;;;29.33;49.06
81905;BME280;71370;-33.792;151.032;2024-02-14T00:32:37;100560.06;;;29.40;49.12
81905;BME280;71370;-33.792;151.032;2024-02-14T00:33:44;100558.23;;;29.50;49.06
81905;BME280;71370;-33.792;151.032;2024-02-14T00:34:52;100563.59;;;29.62;49.37
81905;BME280;71370;-33.792;151.032;2024-02-14T00:35:59;100565.72;;;29.72;48.87
81905;BME280;71370;-33.792;151.032;2024-02-14T00:37:06;100566.32;;;29.81;47.03
81905;BME280;71370;-33.792;151.032;2024-02-14T00:38:13;100565.33;;;29.85;47.35
81905;BME280;71370;-33.792;151.032;2024-02-14T00:39:20;100570.39;;;29.91;46.98
81905;BME280;71370;-33.792;151.032;2024-02-14T00:40:26;100575.36;;;29.94;47.08
81905;BME280;71370;-33.792;151.032;2024-02-14T00:41:33;100577.80;;;29.95;46.56
81905;BME280;71370;-33.792;151.032;2024-02-14T00:42:41;100572.95;;;29.95;46.34
81905;BME280;71370;-33.792;151.032;2024-02-14T00:43:48;100576.02;;;29.93;46.61
81905;BME280;71370;-33.792;151.032;2024-02-14T00:44:55;100575.70;;;29.91;47.06
81905;BME280;71370;-33.792;151.032;2024-02-14T00:46:01;100581.31;;;29.89;47.02
81905;BME280;71370;-33.792;151.032;2024-02-14T00:47:08;100579.58;;;29.86;46.61
81905;BME280;71370;-33.792;151.032;2024-02-14T00:48:15;100579.59;;;29.84;46.95
81905;BME280;71370;-33.792;151.032;2024-02-14T00:49:22;100578.47;;;29.83;47.37
81905;BME280;71370;-33.792;151.032;2024-02-14T00:50:29;100579.28;;;29.82;47.73
81905;BME280;71370;-33.792;151.032;2024-02-14T00:51:36;100581.17;;;29.81;47.70
81905;BME280;71370;-33.792;151.032;2024-02-14T00:52:46;100578.00;;;29.80;47.78
81905;BME280;71370;-33.792;151.032;2024-02-14T00:53:53;100576.60;;;29.80;47.67
81905;BME280;71370;-33.792;151.032;2024-02-14T00:55:00;100578.94;;;29.80;47.87
81905;BME280;71370;-33.792;151.032;2024-02-14T00:56:09;100582.39;;;29.80;47.93
81905;BME280;71370;-33.792;151.032;2024-02-14T00:57:17;100584.05;;;29.79;48.86
81905;BME280;71370;-33.792;151.032;2024-02-14T00:58:25;100581.38;;;29.79;48.11
81905;BME280;71370;-33.792;151.032;2024-02-14T00:59:32;100580.20;;;29.80;47.53
81905;BME280;71370;-33.792;151.032;2024-02-14T01:00:39;100583.48;;;29.80;48.01
81905;BME280;71370;-33.792;151.032;2024-02-14T01:01:46;100582.75;;;29.81;48.54
81905;BME280;71370;-33.792;151.032;2024-02-14T01:02:52;100586.46;;;29.84;48.16
81905;BME280;71370;-33.792;151.032;2024-02-14T01:03:59;100584.13;;;29.86;47.03
81905;BME280;71370;-33.792;151.032;2024-02-14T01:05:07;100580.64;;;29.86;47.07
81905;BME280;71370;-33.792;151.032;2024-02-14T01:06:15;100583.73;;;29.90;47.54
81905;BME280;71370;-33.792;151.032;2024-02-14T01:07:21;100583.31;;;29.94;47.96
81905;BME280;71370;-33.792;151.032;2024-02-14T01:08:28;100582.04;;;29.98;47.93
81905;BME280;71370;-33.792;151.032;2024-02-14T01:09:35;100585.52;;;30.01;47.67
81905;BME280;71370;-33.792;151.032;2024-02-14T01:10:42;100588.41;;;30.05;47.88
81905;BME280;71370;-33.792;151.032;2024-02-14T01:11:49;100588.88;;;30.10;48.38
81905;BME280;71370;-33.792;151.032;2024-02-14T01:12:56;100588.49;;;30.12;46.58
81905;BME280;71370;-33.792;151.032;2024-02-14T01:14:03;100589.92;;;30.12;46.59
81905;BME280;71370;-33.792;151.032;2024-02-14T01:15:10;100590.30;;;30.12;46.83
81905;BME280;71370;-33.792;151.032;2024-02-14T01:16:17;100588.04;;;30.13;46.84
81905;BME280;71370;-33.792;151.032;2024-02-14T01:17:24;100589.63;;;30.15;47.06
81905;BME280;71370;-33.792;151.032;2024-02-14T01:18:31;100584.40;;;30.18;47.08
81905;BME280;71370;-33.792;151.032;2024-02-14T01:19:38;100584.33;;;30.21;47.24
81905;BME280;71370;-33.792;151.032;2024-02-14T01:20:45;100582.80;;;30.24;47.33
81905;BME280;71370;-33.792;151.032;2024-02-14T01:21:51;100586.10;;;30.27;46.56
81905;BME280;71370;-33.792;151.032;2024-02-14T01:22:58;100582.41;;;30.29;45.78
81905;BME280;71370;-33.792;151.032;2024-02-14T01:24:06;100582.87;;;30.31;46.01
81905;BME280;71370;-33.792;151.032;2024-02-14T01:25:14;100583.50;;;30.29;45.86
81905;BME280;71370;-33.792;151.032;2024-02-14T01:26:21;100585.15;;;30.31;46.12
81905;BME280;71370;-33.792;151.032;2024-02-14T01:27:28;100584.31;;;30.34;45.94
81905;BME280;71370;-33.792;151.032;2024-02-14T01:28:35;100583.50;;;30.39;44.41
81905;BME280;71370;-33.792;151.032;2024-02-14T01:29:42;100584.10;;;30.44;44.65
81905;BME280;71370;-33.792;151.032;2024-02-14T01:30:50;100587.15;;;30.49;44.55
81905;BME280;71370;-33.792;151.032;2024-02-14T01:31:57;100588.23;;;30.57;44.15
81905;BME280;71370;-33.792;151.032;2024-02-14T01:33:04;100588.15;;;30.64;43.62
81905;BME280;71370;-33.792;151.032;2024-02-14T01:34:11;100586.91;;;30.72;44.16
81905;BME280;71370;-33.792;151.032;2024-02-14T01:35:18;100585.72;;;30.80;44.23
81905;BME280;71370;-33.792;151.032;2024-02-14T01:36:25;100582.75;;;30.90;43.97
81905;BME280;71370;-33.792;151.032;2024-02-14T01:37:32;100579.80;;;30.97;44.03
81905;BME280;71370;-33.792;151.032;2024-02-14T01:38:39;100584.09;;;31.05;43.85
81905;BME280;71370;-33.792;151.032;2024-02-14T01:39:46;100582.78;;;31.13;43.63
81905;BME280;71370;-33.792;151.032;2024-02-14T01:40:53;100584.35;;;31.20;43.32
81905;BME280;71370;-33.792;151.032;2024-02-14T01:42:00;100583.44;;;31.27;42.62
81905;BME280;71370;-33.792;151.032;2024-02-14T01:43:06;100582.26;;;31.33;42.54
81905;BME280;71370;-33.792;151.032;2024-02-14T01:44:18;100581.92;;;31.38;41.41
81905;BME280;71370;-33.792;151.032;2024-02-14T01:45:26;100578.69;;;31.43;41.76
81905;BME280;71370;-33.792;151.032;2024-02-14T01:46:34;100580.48;;;31.49;41.99
81905;BME280;71370;-33.792;151.032;2024-02-14T01:47:41;100576.20;;;31.55;42.07
81905;BME280;71370;-33.792;151.032;2024-02-14T01:48:48;100578.99;;;31.61;41.80
81905;BME280;71370;-33.792;151.032;2024-02-14T01:49:56;100581.77;;;31.66;41.75
81905;BME280;71370;-33.792;151.032;2024-02-14T01:51:03;100581.33;;;31.71;40.66
81905;BME280;71370;-33.792;151.032;2024-02-14T01:52:14;100580.14;;;31.70;41.52
81905;BME280;71370;-33.792;151.032;2024-02-14T01:53:21;100583.81;;;31.64;41.72
81905;BME280;71370;-33.792;151.032;2024-02-14T01:54:30;100584.55;;;31.68;41.15
81905;BME280;71370;-33.792;151.032;2024-02-14T01:55:37;100588.73;;;31.73;40.74
81905;BME280;71370;-33.792;151.032;2024-02-14T01:56:44;100590.77;;;31.77;40.97
81905;BME280;71370;-33.792;151.032;2024-02-14T01:57:51;100588.20;;;31.83;40.76
81905;BME280;71370;-33.792;151.032;2024-02-14T01:58:59;100591.69;;;31.90;40.57
81905;BME280;71370;-33.792;151.032;2024-02-14T02:00:07;100591.16;;;31.96;40.15
81905;BME280;71370;-33.792;151.032;2024-02-14T02:01:15;100589.27;;;32.02;40.15
81905;BME280;71370;-33.792;151.032;2024-02-14T02:02:26;100585.83;;;32.09;39.87
81905;BME280;71370;-33.792;151.032;2024-02-14T02:03:33;100585.48;;;32.15;39.94
81905;BME280;71370;-33.792;151.032;2024-02-14T02:04:42;100587.40;;;32.23;39.70
81905;BME280;71370;-33.792;151.032;2024-02-14T02:05:49;100585.02;;;32.27;39.47
81905;BME280;71370;-33.792;151.032;2024-02-14T02:06:56;100584.30;;;32.21;39.44
81905;BME280;71370;-33.792;151.032;2024-02-14T02:08:03;100583.08;;;32.23;39.45
81905;BME280;71370;-33.792;151.032;2024-02-14T02:09:10;100586.54;;;32.30;39.74
81905;BME280;71370;-33.792;151.032;2024-02-14T02:10:17;100585.20;;;32.38;39.36
81905;BME280;71370;-33.792;151.032;2024-02-14T02:11:27;100589.90;;;32.47;38.95
81905;BME280;71370;-33.792;151.032;2024-02-14T02:12:34;100587.28;;;32.51;38.37
81905;BME280;71370;-33.792;151.032;2024-02-14T02:13:44;100588.88;;;32.46;38.86
81905;BME280;71370;-33.792;151.032;2024-02-14T02:14:51;100585.14;;;32.39;39.03
81905;BME280;71370;-33.792;151.032;2024-02-14T02:15:58;100585.79;;;32.41;39.08
81905;BME280;71370;-33.792;151.032;2024-02-14T02:17:05;100585.71;;;32.49;38.71
81905;BME280;71370;-33.792;151.032;2024-02-14T02:18:13;100583.46;;;32.56;38.74
81905;BME280;71370;-33.792;151.032;2024-02-14T02:19:21;100592.58;;;32.52;39.04
81905;BME280;71370;-33.792;151.032;2024-02-14T02:20:28;100590.97;;;32.47;40.38
81905;BME280;71370;-33.792;151.032;2024-02-14T02:21:35;100591.70;;;32.42;41.28
81905;BME280;71370;-33.792;151.032;2024-02-14T02:22:48;100593.98;;;32.38;41.99
81905;BME280;71370;-33.792;151.032;2024-02-14T02:23:57;100599.92;;;32.30;42.77
81905;BME280;71370;-33.792;151.032;2024-02-14T02:25:05;100598.59;;;32.20;43.46
81905;BME280;71370;-33.792;151.032;2024-02-14T02:26:13;100599.52;;;32.12;43.55
81905;BME280;71370;-33.792;151.032;2024-02-14T02:27:20;100595.84;;;32.02;43.83
81905;BME280;71370;-33.792;151.032;2024-02-14T02:28:27;100599.16;;;31.93;44.31
81905;BME280;71370;-33.792;151.032;2024-02-14T02:29:34;100599.84;;;31.85;44.96
81905;BME280;71370;-33.792;151.032;2024-02-14T02:30:43;100607.77;;;31.76;44.97
81905;BME280;71370;-33.792;151.032;2024-02-14T02:31:52;100615.08;;;31.67;44.93
81905;BME280;71370;-33.792;151.032;2024-02-14T02:32:59;100620.70;;;31.55;44.97
81905;BME280;71370;-33.792;151.032;2024-02-14T02:34:06;100625.35;;;31.42;45.06
81905;BME280;71370;-33.792;151.032;2024-02-14T02:35:17;100634.75;;;31.28;45.02
81905;BME280;71370;-33.792;151.032;2024-02-14T02:36:27;100632.20;;;31.09;45.15
81905;BME280;71370;-33.792;151.032;2024-02-14T02:37:36;100630.76;;;30.91;45.54
81905;BME280;71370;-33.792;151.032;2024-02-14T02:38:43;100634.40;;;30.76;46.06
81905;BME280;71370;-33.792;151.032;2024-02-14T02:39:50;100633.98;;;30.66;46.45
81905;BME280;71370;-33.792;151.032;2024-02-14T02:40:57;100635.22;;;30.55;46.94
81905;BME280;71370;-33.792;151.032;2024-02-14T02:42:04;100640.43;;;30.46;47.25
81905;BME280;71370;-33.792;151.032;2024-02-14T02:43:11;100640.10;;;30.39;47.69
81905;BME280;71370;-33.792;151.032;2024-02-14T02:44:18;100644.27;;;30.31;47.72
81905;BME280;71370;-33.792;151.032;2024-02-14T02:45:25;100650.08;;;30.25;47.98
81905;BME280;71370;-33.792;151.032;2024-02-14T02:46:33;100649.95;;;30.21;48.41
81905;BME280;71370;-33.792;151.032;2024-02-14T02:47:40;100654.38;;;30.15;48.43
81905;BME280;71370;-33.792;151.032;2024-02-14T02:48:47;100652.30;;;30.07;48.24
81905;BME280;71370;-33.792;151.032;2024-02-14T02:49:54;100654.20;;;29.98;48.38
81905;BME280;71370;-33.792;151.032;2024-02-14T02:51:01;100659.36;;;29.92;48.64
81905;BME280;71370;-33.792;151.032;2024-02-14T02:52:08;100664.48;;;29.85;48.97
81905;BME280;71370;-33.792;151.032;2024-02-14T02:53:16;100658.04;;;29.81;49.12
81905;BME280;71370;-33.792;151.032;2024-02-14T02:54:23;100660.27;;;29.77;49.58
81905;BME280;71370;-33.792;151.032;2024-02-14T02:55:30;100661.33;;;29.73;49.42
81905;BME280;71370;-33.792;151.032;2024-02-14T02:56:38;100663.08;;;29.72;49.48
81905;BME280;71370;-33.792;151.032;2024-02-14T02:57:48;100668.17;;;29.69;49.70
81905;BME280;71370;-33.792;151.032;2024-02-14T02:58:55;100666.27;;;29.66;49.65
81905;BME280;71370;-33.792;151.032;2024-02-14T03:00:04;100663.56;;;29.64;49.88
81905;BME280;71370;-33.792;151.032;2024-02-14T03:01:17;100667.57;;;29.62;50.11
81905;BME280;71370;-33.792;151.032;2024-02-14T03:02:24;100671.14;;;29.61;50.08
81905;BME280;71370;-33.792;151.032;2024-02-14T03:03:32;100664.73;;;29.62;50.57
81905;BME280;71370;-33.792;151.032;2024-02-14T03:04:39;100668.05;;;29.68;50.60
81905;BME280;71370;-33.792;151.032;2024-02-14T03:05:47;100667.21;;;29.72;50.78
81905;BME280;71370;-33.792;151.032;2024-02-14T03:06:55;100668.95;;;29.84;50.54
81905;BME280;71370;-33.792;151.032;2024-02-14T03:08:02;100674.34;;;29.98;50.13
81905;BME280;71370;-33.792;151.032;2024-02-14T03:09:09;100674.79;;;30.08;49.79
81905;BME280;71370;-33.792;151.032;2024-02-14T03:10:16;100672.06;;;30.18;49.50
81905;BME280;71370;-33.792;151.032;2024-02-14T03:11:27;100674.22;;;30.27;49.57
81905;BME280;71370;-33.792;151.032;2024-02-14T03:12:34;100671.69;;;30.37;49.42
81905;BME280;71370;-33.792;151.032;2024-02-14T03:13:41;100674.67;;;30.45;49.47
81905;BME280;71370;-33.792;151.032;2024-02-14T03:14:50;100682.91;;;30.54;49.21
81905;BME280;71370;-33.792;151.032;2024-02-14T03:15:57;100678.27;;;30.58;48.23
81905;BME280;71370;-33.792;151.032;2024-02-14T03:17:04;100680.30;;;30.56;47.93
81905;BME280;71370;-33.792;151.032;2024-02-14T03:18:16;100682.35;;;30.54;48.28
81905;BME280;71370;-33.792;151.032;2024-02-14T03:19:23;100688.61;;;30.53;48.47
81905;BME280;71370;-33.792;151.032;2024-02-14T03:20:29;100683.31;;;30.53;48.74
81905;BME280;71370;-33.792;151.032;2024-02-14T03:21:36;100680.84;;;30.54;48.81
81905;BME280;71370;-33.792;151.032;2024-02-14T03:22:44;100678.61;;;30.53;48.74
81905;BME280;71370;-33.792;151.032;2024-02-14T03:23:51;100679.37;;;30.54;48.24
81905;BME280;71370;-33.792;151.032;2024-02-14T03:25:00;100682.73;;;30.54;48.41
81905;BME280;71370;-33.792;151.032;2024-02-14T03:26:07;100683.54;;;30.49;48.64
81905;BME280;71370;-33.792;151.032;2024-02-14T03:27:15;100687.35;;;30.47;49.04
81905;BME280;71370;-33.792;151.032;2024-02-14T03:28:23;100686.04;;;30.48;48.59
81905;BME280;71370;-33.792;151.032;2024-02-14T03:29:32;100686.41;;;30.48;48.57
81905;BME280;71370;-33.792;151.032;2024-02-14T03:30:41;100691.50;;;30.49;48.67
81905;BME280;71370;-33.792;151.032;2024-02-14T03:31:48;100695.36;;;30.51;48.55
81905;BME280;71370;-33.792;151.032;2024-02-14T03:32:55;100694.90;;;30.52;48.62
81905;BME280;71370;-33.792;151.032;2024-02-14T03:34:02;100701.84;;;30.51;48.59
81905;BME280;71370;-33.792;151.032;2024-02-14T03:35:09;100703.39;;;30.51;48.69
81905;BME280;71370;-33.792;151.032;2024-02-14T03:36:22;100703.95;;;30.52;48.69
81905;BME280;71370;-33.792;151.032;2024-02-14T03:37:31;100696.53;;;30.57;48.40
81905;BME280;71370;-33.792;151.032;2024-02-14T03:38:38;100702.73;;;30.62;48.64
81905;BME280;71370;-33.792;151.032;2024-02-14T03:39:46;100700.98;;;30.68;48.47
81905;BME280;71370;-33.792;151.032;2024-02-14T03:40:53;100701.23;;;30.70;48.69
81905;BME280;71370;-33.792;151.032;2024-02-14T03:42:01;100696.55;;;30.73;48.79
81905;BME280;71370;-33.792;151.032;2024-02-14T03:43:13;100698.55;;;30.64;48.14
81905;BME280;71370;-33.792;151.032;2024-02-14T03:44:20;100700.24;;;30.53;48.32
81905;BME280;71370;-33.792;151.032;2024-02-14T03:45:27;100700.80;;;30.47;48.88
81905;BME280;71370;-33.792;151.032;2024-02-14T03:46:36;100706.09;;;30.38;48.90
81905;BME280;71370;-33.792;151.032;2024-02-14T03:47:42;100706.45;;;30.24;48.72
81905;BME280;71370;-33.792;151.032;2024-02-14T03:48:49;100700.67;;;30.15;49.00
81905;BME280;71370;-33.792;151.032;2024-02-14T03:49:58;100700.71;;;30.14;49.00
81905;BME280;71370;-33.792;151.032;2024-02-14T03:51:05;100692.42;;;30.16;49.27
81905;BME280;71370;-33.792;151.032;2024-02-14T03:52:12;100697.84;;;30.18;49.44
81905;BME280;71370;-33.792;151.032;2024-02-14T03:53:19;100696.00;;;30.16;49.45
81905;BME280;71370;-33.792;151.032;2024-02-14T03:54:26;100692.83;;;30.15;49.08
81905;BME280;71370;-33.792;151.032;2024-02-14T03:55:33;100696.64;;;30.15;49.63
81905;BME280;71370;-33.792;151.032;2024-02-14T03:56:41;100686.03;;;30.18;49.28
81905;BME280;71370;-33.792;151.032;2024-02-14T03:57:48;100682.15;;;30.20;49.02
81905;BME280;71370;-33.792;151.032;2024-02-14T03:58:55;100676.20;;;30.22;49.01
81905;BME280;71370;-33.792;151.032;2024-02-14T04:00:01;100676.47;;;30.25;49.19
81905;BME280;71370;-33.792;151.032;2024-02-14T04:01:08;100682.92;;;30.27;48.77
81905;BME280;71370;-33.792;151.032;2024-02-14T04:02:15;100685.45;;;30.27;48.32
81905;BME280;71370;-33.792;151.032;2024-02-14T04:03:22;100692.99;;;30.24;48.26
81905;BME280;71370;-33.792;151.032;2024-02-14T04:04:29;100691.02;;;30.22;48.20
81905;BME280;71370;-33.792;151.032;2024-02-14T04:05:36;100695.11;;;30.17;48.07
81905;BME280;71370;-33.792;151.032;2024-02-14T04:06:43;100683.94;;;30.11;48.15
81905;BME280;71370;-33.792;151.032;2024-02-14T04:07:51;100691.48;;;30.08;48.26
81905;BME280;71370;-33.792;151.032;2024-02-14T04:08:59;100688.21;;;30.06;48.48
81905;BME280;71370;-33.792;151.032;2024-02-14T04:10:06;100690.44;;;30.04;48.50
81905;BME280;71370;-33.792;151.032;2024-02-14T04:11:13;100687.30;;;30.04;48.47
81905;BME280;71370;-33.792;151.032;2024-02-14T04:12:20;100687.16;;;30.06;48.54
81905;BME280;71370;-33.792;151.032;2024-02-14T04:13:27;100683.76;;;30.05;48.57
81905;BME280;71370;-33.792;151.032;2024-02-14T04:14:34;100686.08;;;30.01;49.30
81905;BME280;71370;-33.792;151.032;2024-02-14T04:15:42;100682.32;;;29.91;49.10
81905;BME280;71370;-33.792;151.032;2024-02-14T04:16:55;100676.19;;;29.82;49.46
81905;BME280;71370;-33.792;151.032;2024-02-14T04:18:02;100672.94;;;29.75;49.63
81905;BME280;71370;-33.792;151.032;2024-02-14T04:19:10;100671.23;;;29.64;49.56
81905;BME280;71370;-33.792;151.032;2024-02-14T04:20:19;100672.87;;;29.54;50.03
81905;BME280;71370;-33.792;151.032;2024-02-14T04:21:25;100670.50;;;29.48;50.53
81905;BME280;71370;-33.792;151.032;2024-02-14T04:22:32;100669.26;;;29.45;50.18
81905;BME280;71370;-33.792;151.032;2024-02-14T04:23:39;100663.22;;;29.47;50.14
81905;BME280;71370;-33.792;151.032;2024-02-14T04:24:46;100667.75;;;29.50;50.13
81905;BME280;71370;-33.792;151.032;2024-02-14T04:25:53;100668.24;;;29.45;49.69
81905;BME280;71370;-33.792;151.032;2024-02-14T04:27:00;100671.42;;;29.46;49.85
81905;BME280;71370;-33.792;151.032;2024-02-14T04:28:10;100676.49;;;29.43;49.50
81905;BME280;71370;-33.792;151.032;2024-02-14T04:29:18;100673.02;;;29.31;49.54
81905;BME280;71370;-33.792;151.032;2024-02-14T04:30:25;100676.42;;;29.18;49.99
81905;BME280;71370;-33.792;151.032;2024-02-14T04:31:32;100676.50;;;29.14;50.17
81905;BME280;71370;-33.792;151.032;2024-02-14T04:32:38;100669.64;;;29.13;50.25
81905;BME280;71370;-33.792;151.032;2024-02-14T04:33:45;100675.33;;;29.10;50.54
81905;BME280;71370;-33.792;151.032;2024-02-14T04:34:59;100678.36;;;29.05;50.87
81905;BME280;71370;-33.792;151.032;2024-02-14T04:36:06;100675.07;;;28.99;50.50
81905;BME280;71370;-33.792;151.032;2024-02-14T04:37:13;100679.46;;;28.95;50.54
81905;BME280;71370;-33.792;151.032;2024-02-14T04:38:21;100678.64;;;28.90;50.52
81905;BME280;71370;-33.792;151.032;2024-02-14T04:39:28;100675.91;;;28.86;50.96
81905;BME280;71370;-33.792;151.032;2024-02-14T04:40:35;100681.48;;;28.81;51.37
81905;BME280;71370;-33.792;151.032;2024-02-14T04:41:43;100676.09;;;28.72;51.22
81905;BME280;71370;-33.792;151.032;2024-02-14T04:42:50;100682.70;;;28.65;51.05
81905;BME280;71370;-33.792;151.032;2024-02-14T04:43:58;100681.06;;;28.57;51.42
81905;BME280;71370;-33.792;151.032;2024-02-14T04:45:05;100679.91;;;28.49;51.18
81905;BME280;71370;-33.792;151.032;2024-02-14T04:46:12;100678.76;;;28.43;51.41
81905;BME280;71370;-33.792;151.032;2024-02-14T04:47:19;100680.45;;;28.38;51.69
81905;BME280;71370;-33.792;151.032;2024-02-14T04:48:26;100681.77;;;28.35;51.57
81905;BME280;71370;-33.792;151.032;2024-02-14T04:49:33;100680.02;;;28.30;51.60
81905;BME280;71370;-33.792;151.032;2024-02-14T04:50:40;100685.37;;;28.23;52.01
81905;BME280;71370;-33.792;151.032;2024-02-14T04:51:47;100686.79;;;28.15;52.07
81905;BME280;71370;-33.792;151.032;2024-02-14T04:52:54;100694.81;;;28.08;52.39
81905;BME280;71370;-33.792;151.032;2024-02-14T04:54:01;100702.32;;;28.01;52.37
81905;BME280;71370;-33.792;151.032;2024-02-14T04:55:08;100709.94;;;27.92;52.31
81905;BME280;71370;-33.792;151.032;2024-02-14T04:56:15;100716.57;;;27.82;52.63
81905;BME280;71370;-33.792;151.032;2024-02-14T04:57:23;100723.20;;;27.70;53.16
81905;BME280;71370;-33.792;151.032;2024-02-14T04:58:30;100725.47;;;27.61;53.38
81905;BME280;71370;-33.792;151.032;2024-02-14T04:59:36;100725.15;;;27.51;53.67
81905;BME280;71370;-33.792;151.032;2024-02-14T05:00:43;100732.60;;;27.44;54.01
81905;BME280;71370;-33.792;151.032;2024-02-14T05:01:50;100734.27;;;27.38;54.08
81905;BME280;71370;-33.792;151.032;2024-02-14T05:02:59;100735.87;;;27.31;54.29
81905;BME280;71370;-33.792;151.032;2024-02-14T05:04:07;100743.66;;;27.22;54.71
81905;BME280;71370;-33.792;151.032;2024-02-14T05:05:14;100741.91;;;27.13;54.72
81905;BME280;71370;-33.792;151.032;2024-02-14T05:06:21;100740.60;;;27.07;55.03
81905;BME280;71370;-33.792;151.032;2024-02-14T05:07:28;100737.33;;;27.01;55.37
81905;BME280;71370;-33.792;151.032;2024-02-14T05:08:35;100747.36;;;26.93;55.42
81905;BME280;71370;-33.792;151.032;2024-02-14T05:09:42;100745.15;;;26.87;55.51
81905;BME280;71370;-33.792;151.032;2024-02-14T05:10:50;100748.35;;;26.83;55.71
81905;BME280;71370;-33.792;151.032;2024-02-14T05:11:57;100748.15;;;26.81;55.99
81905;BME280;71370;-33.792;151.032;2024-02-14T05:13:04;100748.89;;;26.81;55.98
81905;BME280;71370;-33.792;151.032;2024-02-14T05:14:12;100748.66;;;26.79;56.02
81905;BME280;71370;-33.792;151.032;2024-02-14T05:15:19;100757.80;;;26.77;56.29
81905;BME280;71370;-33.792;151.032;2024-02-14T05:16:26;100758.56;;;26.75;56.23
81905;BME280;71370;-33.792;151.032;2024-02-14T05:17:33;100767.98;;;26.72;56.67
81905;BME280;71370;-33.792;151.032;2024-02-14T05:18:41;100767.23;;;26.68;56.63
81905;BME280;71370;-33.792;151.032;2024-02-14T05:19:48;100777.41;;;26.65;56.71
81905;BME280;71370;-33.792;151.032;2024-02-14T05:20:55;100773.92;;;26.61;56.51
81905;BME280;71370;-33.792;151.032;2024-02-14T05:22:02;100777.42;;;26.57;56.93
81905;BME280;71370;-33.792;151.032;2024-02-14T05:23:08;100782.33;;;26.53;56.78
81905;BME280;71370;-33.792;151.032;2024-02-14T05:24:17;100785.23;;;26.46;56.96
81905;BME280;71370;-33.792;151.032;2024-02-14T05:25:24;100788.05;;;26.39;56.99
81905;BME280;71370;-33.792;151.032;2024-02-14T05:26:31;100792.08;;;26.36;57.32
81905;BME280;71370;-33.792;151.032;2024-02-14T05:27:38;100797.66;;;26.34;57.49
81905;BME280;71370;-33.792;151.032;2024-02-14T05:28:45;100797.48;;;26.34;57.30
81905;BME280;71370;-33.792;151.032;2024-02-14T05:29:52;100801.86;;;26.34;57.39
81905;BME280;71370;-33.792;151.032;2024-02-14T05:31:02;100804.98;;;26.33;57.37
81905;BME280;71370;-33.792;151.032;2024-02-14T05:32:09;100808.34;;;26.31;57.19
81905;BME280;71370;-33.792;151.032;2024-02-14T05:33:16;100810.90;;;26.29;57.26
81905;BME280;71370;-33.792;151.032;2024-02-14T05:34:24;100812.73;;;26.24;57.12
81905;BME280;71370;-33.792;151.032;2024-02-14T05:35:31;100814.89;;;26.19;57.25
81905;BME280;71370;-33.792;151.032;2024-02-14T05:36:38;100813.80;;;26.15;57.42
81905;BME280;71370;-33.792;151.032;2024-02-14T05:37:45;100816.47;;;26.10;57.74
81905;BME280;71370;-33.792;151.032;2024-02-14T05:38:55;100821.87;;;26.06;57.64